Time;durP1;ratioP1;P1;durP2;ratioP2;P2;SDS_P1;SDS_P2;PMS_P1;PMS_P2;Temp;Humidity;BMP_temperature;BMP_pressure;BME280_temperature;BME280_humidity;BME280_pressure;Samples;Min_cycle;Max_cycle;Signal;HPM_P1;HPM_P2
2022/09/13 00:00:36;;;;;;;9.93;4.77;;;;;;;;;;5013830;28;20537;-68
2022/09/13 00:03:02;;;;;;;6.37;5.13;;;;;;;;;;5013619;28;20257;-68
2022/09/13 00:05:28;;;;;;;5.00;4.50;;;;;;;;;;5012281;28;20245;-69
2022/09/13 00:07:54;;;;;;;7.40;4.77;;;;;;;;;;5013647;28;20179;-69
2022/09/13 00:10:20;;;;;;;6.93;4.60;;;;;;;;;;5012026;28;20199;-68
2022/09/13 00:12:47;;;;;;;6.57;4.60;;;;;;;;;;5013506;28;20225;-68
2022/09/13 00:15:13;;;;;;;8.43;4.00;;;;;;;;;;5013685;28;20656;-69
2022/09/13 00:17:39;;;;;;;8.70;4.40;;;;;;;;;;5013549;28;20702;-68
2022/09/13 00:20:05;;;;;;;6.10;4.53;;;;;;;;;;5013412;28;20212;-68
2022/09/13 00:22:31;;;;;;;5.03;4.17;;;;;;;;;;5013444;28;20219;-69
2022/09/13 00:24:57;;;;;;;6.70;4.40;;;;;;;;;;5012093;28;20215;-68
2022/09/13 00:27:23;;;;;;;5.97;4.13;;;;;;;;;;5012154;28;20184;-68
2022/09/13 00:29:50;;;;;;;9.10;5.30;;;;;;;;;;5013565;28;20210;-69
2022/09/13 00:32:16;;;;;;;5.73;4.23;;;;;;;;;;5013307;28;20553;-68
2022/09/13 00:34:42;;;;;;;5.20;4.20;;;;;;;;;;5012052;28;20188;-68
2022/09/13 00:37:08;;;;;;;6.70;4.60;;;;;;;;;;5012145;28;20183;-68
2022/09/13 00:39:34;;;;;;;7.40;4.30;;;;;;;;;;5013173;28;20207;-68
2022/09/13 00:42:00;;;;;;;4.73;3.93;;;;;;;;;;5012073;28;20176;-68
2022/09/13 00:44:45;;;;;;;7.93;4.20;;;;;;;;;;5012067;28;20175;-69
2022/09/13 00:47:13;;;;;;;9.30;4.50;;;;;;;;;;5013475;28;20172;-68
2022/09/13 00:49:39;;;;;;;6.13;4.10;;;;;;;;;;5013101;28;20210;-68
2022/09/13 00:52:07;;;;;;;5.60;4.20;;;;;;;;;;5011914;28;20273;-68
2022/09/13 00:54:39;;;;;;;4.83;4.20;;;;;;;;;;5012188;28;20606;-68
2022/09/13 00:57:06;;;;;;;5.83;4.50;;;;;;;;;;5011871;28;20176;-70
2022/09/13 00:59:38;;;;;;;6.17;4.40;;;;;;;;;;5013006;28;20699;-69
2022/09/13 01:02:04;;;;;;;9.40;4.43;;;;;;;;;;5013067;28;20180;-69
2022/09/13 01:04:32;;;;;;;6.07;4.57;;;;;;;;;;5013020;28;20200;-69
2022/09/13 01:07:00;;;;;;;5.17;4.27;;;;;;;;;;5013055;28;20177;-69
2022/09/13 01:09:26;;;;;;;6.30;4.33;;;;;;;;;;5013066;28;20285;-68
2022/09/13 01:11:59;;;;;;;7.77;4.90;;;;;;;;;;5013979;28;20183;-68
2022/09/13 01:14:26;;;;;;;7.97;4.13;;;;;;;;;;5016626;28;20165;-68
2022/09/13 01:16:53;;;;;;;6.60;4.90;;;;;;;;;;5016742;28;20215;-68
2022/09/13 01:19:19;;;;;;;8.80;4.43;;;;;;;;;;5017728;28;20218;-68
2022/09/13 01:21:54;;;;;;;5.60;4.30;;;;;;;;;;5016548;28;20176;-68
2022/09/13 01:24:39;;;;;;;5.67;4.30;;;;;;;;;;5015165;28;20274;-68
2022/09/13 01:27:19;;;;;;;7.07;4.53;;;;;;;;;;5016516;28;20210;-68
2022/09/13 01:29:58;;;;;;;6.33;4.30;;;;;;;;;;5016394;28;20199;-68
2022/09/13 01:32:32;;;;;;;8.53;4.40;;;;;;;;;;5016768;28;20172;-69
2022/09/13 01:35:07;;;;;;;6.60;4.43;;;;;;;;;;5016351;28;20251;-69
2022/09/13 01:37:52;;;;;;;6.67;4.40;;;;;;;;;;5016548;28;20262;-69
2022/09/13 01:40:31;;;;;;;6.50;4.73;;;;;;;;;;5016263;28;20554;-68
2022/09/13 01:43:03;;;;;;;6.57;4.30;;;;;;;;;;5016296;28;20613;-68
2022/09/13 01:45:38;;;;;;;5.83;4.47;;;;;;;;;;5016341;28;20168;-69
2022/09/13 01:48:15;;;;;;;5.10;4.00;;;;;;;;;;5016305;28;20175;-68
2022/09/13 01:50:41;;;;;;;8.27;4.70;;;;;;;;;;5014810;28;20637;-68
2022/09/13 01:53:07;;;;;;;5.40;4.10;;;;;;;;;;5016244;28;20176;-69
2022/09/13 01:55:46;;;;;;;7.20;4.60;;;;;;;;;;5015990;28;20233;-68
2022/09/13 01:58:15;;;;;;;6.07;4.23;;;;;;;;;;5016008;28;20195;-68
2022/09/13 02:00:44;;;;;;;9.80;5.00;;;;;;;;;;5016113;28;20172;-68
2022/09/13 02:03:28;;;;;;;5.20;4.27;;;;;;;;;;5014465;28;20180;-69
2022/09/13 02:05:57;;;;;;;7.53;4.37;;;;;;;;;;5014505;28;20180;-68
2022/09/13 02:08:23;;;;;;;6.37;4.63;;;;;;;;;;5015663;28;20615;-68
2022/09/13 02:10:51;;;;;;;8.67;5.10;;;;;;;;;;5014531;28;20230;-68
2022/09/13 02:13:19;;;;;;;9.10;4.67;;;;;;;;;;5015545;28;20183;-69
2022/09/13 02:15:54;;;;;;;6.97;5.03;;;;;;;;;;5016097;28;20179;-69
2022/09/13 02:18:25;;;;;;;7.03;4.53;;;;;;;;;;5015405;28;20167;-68
2022/09/13 02:20:52;;;;;;;7.83;4.90;;;;;;;;;;5015468;28;20172;-68
2022/09/13 02:23:44;;;;;;;7.90;4.80;;;;;;;;;;5015599;28;20176;-69
2022/09/13 02:26:12;;;;;;;7.90;4.70;;;;;;;;;;5011406;28;20187;-68
2022/09/13 02:28:41;;;;;;;5.43;4.37;;;;;;;;;;5013974;28;20207;-68
2022/09/13 02:31:08;;;;;;;7.23;4.50;;;;;;;;;;5015399;28;20208;-68
2022/09/13 02:33:45;;;;;;;7.40;5.53;;;;;;;;;;5015287;28;20179;-69
2022/09/13 02:36:18;;;;;;;7.80;4.40;;;;;;;;;;5013966;28;20188;-68
2022/09/13 02:38:47;;;;;;;8.00;4.90;;;;;;;;;;5013716;28;20211;-67
2022/09/13 02:41:16;;;;;;;5.50;4.33;;;;;;;;;;5015065;28;20184;-68
2022/09/13 02:43:45;;;;;;;10.10;5.00;;;;;;;;;;5015048;28;20176;-68
2022/09/13 02:46:17;;;;;;;6.10;4.37;;;;;;;;;;5015063;28;20180;-68
2022/09/13 02:48:58;;;;;;;7.43;4.63;;;;;;;;;;5013592;28;20239;-68
2022/09/13 02:51:36;;;;;;;5.73;4.20;;;;;;;;;;5013680;28;20180;-68
2022/09/13 02:54:09;;;;;;;6.33;4.23;;;;;;;;;;5015327;28;20168;-68
2022/09/13 02:56:51;;;;;;;4.50;4.10;;;;;;;;;;5015396;28;20172;-68
2022/09/13 02:59:21;;;;;;;7.40;4.43;;;;;;;;;;5013329;28;20266;-68
2022/09/13 03:01:49;;;;;;;6.20;4.20;;;;;;;;;;5013886;28;20547;-69
2022/09/13 03:04:15;;;;;;;7.17;3.70;;;;;;;;;;5013658;28;20183;-68
2022/09/13 03:06:41;;;;;;;5.30;4.10;;;;;;;;;;5013532;28;20184;-68
2022/09/13 03:09:07;;;;;;;7.10;4.27;;;;;;;;;;5013201;28;20295;-69
2022/09/13 03:11:36;;;;;;;6.67;4.13;;;;;;;;;;5014552;28;20648;-68
2022/09/13 03:14:05;;;;;;;4.73;4.23;;;;;;;;;;5015043;28;20180;-69
2022/09/13 03:16:50;;;;;;;7.53;4.30;;;;;;;;;;5014322;28;20263;-68
2022/09/13 03:19:27;;;;;;;8.87;4.80;;;;;;;;;;5013061;28;20215;-68
2022/09/13 03:22:09;;;;;;;7.60;4.73;;;;;;;;;;5014381;28;20159;-68
2022/09/13 03:24:47;;;;;;;8.73;5.13;;;;;;;;;;5014240;28;20160;-69
2022/09/13 03:27:16;;;;;;;6.27;4.93;;;;;;;;;;5014397;28;20176;-68
2022/09/13 03:29:51;;;;;;;9.07;5.23;;;;;;;;;;5012865;28;20203;-68
2022/09/13 03:32:38;;;;;;;7.73;5.17;;;;;;;;;;5014112;28;20639;-68
2022/09/13 03:35:22;;;;;;;9.17;5.53;;;;;;;;;;4992765;28;20227;-68
2022/09/13 03:38:01;;;;;;;9.37;5.53;;;;;;;;;;5014134;28;20220;-68
2022/09/13 03:40:42;;;;;;;5.30;4.70;;;;;;;;;;5012548;28;20237;-68
2022/09/13 03:43:20;;;;;;;5.87;5.03;;;;;;;;;;5014211;28;20226;-69
2022/09/13 03:45:51;;;;;;;8.63;5.50;;;;;;;;;;5013949;28;20171;-68
2022/09/13 03:48:18;;;;;;;8.33;5.90;;;;;;;;;;5014140;28;20258;-68
2022/09/13 03:50:45;;;;;;;7.10;5.80;;;;;;;;;;5012602;28;20187;-68
2022/09/13 03:53:13;;;;;;;7.43;5.40;;;;;;;;;;5012526;28;20184;-68
2022/09/13 03:55:40;;;;;;;6.57;5.87;;;;;;;;;;5012518;28;20194;-68
2022/09/13 03:58:06;;;;;;;6.13;5.10;;;;;;;;;;5012401;28;20233;-68
2022/09/13 04:00:32;;;;;;;5.77;5.20;;;;;;;;;;5012500;28;20199;-68
2022/09/13 04:02:58;;;;;;;7.20;5.13;;;;;;;;;;5014144;28;20180;-68
2022/09/13 04:05:24;;;;;;;9.03;5.10;;;;;;;;;;5013647;28;20269;-68
2022/09/13 04:07:50;;;;;;;9.20;5.50;;;;;;;;;;5014149;28;20187;-68
2022/09/13 04:10:16;;;;;;;8.40;5.50;;;;;;;;;;5012225;28;20594;-68
2022/09/13 04:12:42;;;;;;;6.97;5.10;;;;;;;;;;5013481;28;20210;-68
2022/09/13 04:15:08;;;;;;;8.27;5.43;;;;;;;;;;5013851;28;20590;-68
2022/09/13 04:17:35;;;;;;;7.37;5.27;;;;;;;;;;5013517;28;20172;-68
2022/09/13 04:20:01;;;;;;;11.57;5.10;;;;;;;;;;5013473;28;20219;-68
2022/09/13 04:22:28;;;;;;;7.70;5.17;;;;;;;;;;5013715;28;20242;-68
2022/09/13 04:24:54;;;;;;;6.03;5.00;;;;;;;;;;5012154;28;20222;-68
2022/09/13 04:27:20;;;;;;;6.77;4.87;;;;;;;;;;5013404;28;20186;-68
2022/09/13 04:29:46;;;;;;;7.50;5.10;;;;;;;;;;5013311;28;20203;-68
2022/09/13 04:32:12;;;;;;;8.67;5.30;;;;;;;;;;5013489;28;20187;-68
2022/09/13 04:34:38;;;;;;;7.00;5.50;;;;;;;;;;5013245;28;20187;-69
2022/09/13 04:37:04;;;;;;;8.27;5.10;;;;;;;;;;5013224;28;20636;-68
2022/09/13 04:39:30;;;;;;;6.60;5.00;;;;;;;;;;5013093;28;20242;-68
2022/09/13 04:41:56;;;;;;;11.97;5.07;;;;;;;;;;5012030;28;20545;-68
2022/09/13 04:44:23;;;;;;;8.40;5.10;;;;;;;;;;5013336;28;20184;-68
2022/09/13 04:46:49;;;;;;;6.43;4.83;;;;;;;;;;5014653;28;20210;-68
2022/09/13 04:49:18;;;;;;;7.00;5.17;;;;;;;;;;5017433;28;20661;-68
2022/09/13 04:51:44;;;;;;;7.70;5.50;;;;;;;;;;5015999;28;20187;-68
2022/09/13 04:54:11;;;;;;;5.27;4.77;;;;;;;;;;5015792;28;20187;-68
2022/09/13 04:56:37;;;;;;;8.03;5.40;;;;;;;;;;5015793;28;20187;-68
2022/09/13 04:59:03;;;;;;;7.17;5.07;;;;;;;;;;5016980;28;20223;-68
2022/09/13 05:01:29;;;;;;;10.70;5.67;;;;;;;;;;5016950;28;20680;-68
2022/09/13 05:03:55;;;;;;;9.70;4.90;;;;;;;;;;5016762;28;20584;-68
2022/09/13 05:06:22;;;;;;;6.57;5.13;;;;;;;;;;5016834;28;20187;-68
2022/09/13 05:08:53;;;;;;;6.67;4.83;;;;;;;;;;5016650;28;20199;-68
2022/09/13 05:11:20;;;;;;;6.70;5.20;;;;;;;;;;5016732;28;20180;-68
2022/09/13 05:13:51;;;;;;;7.67;6.30;;;;;;;;;;5016750;28;20180;-68
2022/09/13 05:16:17;;;;;;;9.00;5.53;;;;;;;;;;5016651;28;20156;-68
2022/09/13 05:18:43;;;;;;;9.10;8.20;;;;;;;;;;5015218;28;20216;-68
2022/09/13 05:21:09;;;;;;;9.37;6.80;;;;;;;;;;5015248;28;20192;-69
2022/09/13 05:23:35;;;;;;;11.43;7.77;;;;;;;;;;5015129;28;20220;-68
2022/09/13 05:26:03;;;;;;;6.80;6.00;;;;;;;;;;5016492;28;20185;-68
2022/09/13 05:28:30;;;;;;;9.33;6.07;;;;;;;;;;5016623;28;20232;-68
2022/09/13 05:31:03;;;;;;;7.73;5.47;;;;;;;;;;5016974;28;20267;-68
2022/09/13 05:33:31;;;;;;;9.40;5.50;;;;;;;;;;5016457;28;20175;-68
2022/09/13 05:35:57;;;;;;;9.60;5.80;;;;;;;;;;5016426;28;20180;-68
2022/09/13 05:38:23;;;;;;;9.07;5.73;;;;;;;;;;5020400;28;20232;-68
2022/09/13 05:40:55;;;;;;;7.23;6.10;;;;;;;;;;5021200;28;20191;-68
2022/09/13 05:43:21;;;;;;;6.97;5.13;;;;;;;;;;5021072;28;20540;-68
2022/09/13 05:45:47;;;;;;;9.67;5.47;;;;;;;;;;5021252;28;20180;-68
2022/09/13 05:48:13;;;;;;;9.07;6.00;;;;;;;;;;5021048;28;20230;-68
2022/09/13 05:50:39;;;;;;;12.00;5.73;;;;;;;;;;5017408;28;20530;-69
2022/09/13 05:53:05;;;;;;;10.53;5.53;;;;;;;;;;5017107;28;20229;-68
2022/09/13 05:55:31;;;;;;;12.47;6.00;;;;;;;;;;5016779;28;20255;-68
2022/09/13 05:57:57;;;;;;;9.70;6.20;;;;;;;;;;5016106;28;20314;-68
2022/09/13 06:00:23;;;;;;;9.83;5.90;;;;;;;;;;5015719;28;20219;-70
2022/09/13 06:02:49;;;;;;;11.17;5.73;;;;;;;;;;5014660;28;20191;-68
2022/09/13 06:05:15;;;;;;;8.20;5.83;;;;;;;;;;5015928;28;20548;-68
2022/09/13 06:07:41;;;;;;;8.07;5.50;;;;;;;;;;5014584;28;20176;-69
2022/09/13 06:10:08;;;;;;;10.00;5.73;;;;;;;;;;5015485;28;20686;-68
2022/09/13 06:12:34;;;;;;;9.30;5.37;;;;;;;;;;5014185;28;20194;-68
2022/09/13 06:15:00;;;;;;;7.90;4.90;;;;;;;;;;5016102;28;20263;-68
2022/09/13 06:17:26;;;;;;;8.93;5.30;;;;;;;;;;5015942;28;20180;-68
2022/09/13 06:19:51;;;;;;;7.57;5.23;;;;;;;;;;5014273;28;20241;-68
2022/09/13 06:22:17;;;;;;;8.43;5.17;;;;;;;;;;5014318;28;20176;-68
2022/09/13 06:24:43;;;;;;;8.57;5.00;;;;;;;;;;5014241;28;20175;-68
2022/09/13 06:27:09;;;;;;;10.37;5.30;;;;;;;;;;5014163;28;20216;-68
2022/09/13 06:29:35;;;;;;;7.60;5.13;;;;;;;;;;5014131;28;20196;-68
2022/09/13 06:32:02;;;;;;;9.27;5.23;;;;;;;;;;5015329;28;20183;-68
2022/09/13 06:34:28;;;;;;;8.20;4.90;;;;;;;;;;5015195;28;20652;-68
2022/09/13 06:36:54;;;;;;;8.37;4.77;;;;;;;;;;5013957;28;20234;-68
2022/09/13 06:39:20;;;;;;;6.23;5.33;;;;;;;;;;5015033;28;20238;-68
2022/09/13 06:41:46;;;;;;;6.97;4.87;;;;;;;;;;5014973;28;20179;-68
2022/09/13 06:44:12;;;;;;;10.07;4.77;;;;;;;;;;5013711;28;20187;-68
2022/09/13 06:46:38;;;;;;;10.80;5.07;;;;;;;;;;5015294;28;20527;-68
2022/09/13 06:49:05;;;;;;;7.60;4.97;;;;;;;;;;5014996;28;20239;-69
2022/09/13 06:51:32;;;;;;;9.90;5.30;;;;;;;;;;5015017;28;20647;-68
2022/09/13 06:53:58;;;;;;;7.33;4.97;;;;;;;;;;5013760;28;20223;-69
2022/09/13 06:56:24;;;;;;;9.47;4.80;;;;;;;;;;5013636;28;20218;-69
2022/09/13 06:58:54;;;;;;;8.30;4.93;;;;;;;;;;5014719;28;20246;-68
2022/09/13 07:01:22;;;;;;;9.47;4.93;;;;;;;;;;5013499;28;20179;-68
2022/09/13 07:03:49;;;;;;;9.27;5.13;;;;;;;;;;5014845;28;20180;-68
2022/09/13 07:06:16;;;;;;;8.33;4.87;;;;;;;;;;5014628;28;20644;-69
2022/09/13 07:08:43;;;;;;;9.20;4.83;;;;;;;;;;5013782;28;20192;-68
2022/09/13 07:11:09;;;;;;;7.73;4.37;;;;;;;;;;5014720;28;20234;-69
2022/09/13 07:13:35;;;;;;;8.37;4.33;;;;;;;;;;5013740;28;20189;-69
2022/09/13 07:16:02;;;;;;;6.77;4.60;;;;;;;;;;5013573;28;20184;-69
2022/09/13 07:18:28;;;;;;;7.97;4.70;;;;;;;;;;5014641;28;20298;-68
2022/09/13 07:21:02;;;;;;;7.30;4.30;;;;;;;;;;5038373;23;20235;-67
2022/09/13 07:23:29;;;;;;;7.13;4.67;;;;;;;;;;4996676;28;20640;-68
2022/09/13 07:26:00;;;;;;;6.13;4.83;;;;;;;;;;4996883;28;20539;-68
2022/09/13 07:28:26;;;;;;;5.17;4.67;;;;;;;;;;5014530;28;20159;-67
2022/09/13 07:30:52;;;;;;;6.13;4.73;;;;;;;;;;5014068;28;20299;-68
2022/09/13 07:33:18;;;;;;;6.73;4.90;;;;;;;;;;5014283;28;20303;-68
2022/09/13 07:35:44;;;;;;;11.00;5.10;;;;;;;;;;4996416;28;20219;-68
2022/09/13 07:38:10;;;;;;;12.10;5.60;;;;;;;;;;5014269;28;20176;-68
2022/09/13 07:40:36;;;;;;;6.13;4.47;;;;;;;;;;5013920;28;20277;-68
2022/09/13 07:43:02;;;;;;;6.67;4.40;;;;;;;;;;5013893;28;20178;-68
2022/09/13 07:45:28;;;;;;;8.73;5.07;;;;;;;;;;5013860;28;20259;-68
2022/09/13 07:47:55;;;;;;;5.77;4.67;;;;;;;;;;5013823;28;20238;-68
2022/09/13 07:50:20;;;;;;;9.27;4.83;;;;;;;;;;4996187;28;20183;-68
2022/09/13 07:52:46;;;;;;;10.53;5.20;;;;;;;;;;4996104;28;20276;-68
2022/09/13 07:55:12;;;;;;;5.50;4.87;;;;;;;;;;4996287;28;20215;-68
2022/09/13 07:57:38;;;;;;;10.00;4.83;;;;;;;;;;5013629;28;20546;-67
2022/09/13 08:00:04;;;;;;;6.23;4.90;;;;;;;;;;5013962;28;20242;-68
2022/09/13 08:02:31;;;;;;;5.97;4.77;;;;;;;;;;5013911;28;20196;-67
2022/09/13 08:04:56;;;;;;;9.57;5.00;;;;;;;;;;4996002;28;20176;-67
2022/09/13 08:07:22;;;;;;;8.83;5.10;;;;;;;;;;4995966;28;20194;-68
2022/09/13 08:09:49;;;;;;;6.53;5.83;;;;;;;;;;4995901;28;20183;-68
2022/09/13 08:12:14;;;;;;;5.83;5.10;;;;;;;;;;5013922;28;20569;-68
2022/09/13 08:14:40;;;;;;;7.30;5.57;;;;;;;;;;5013748;28;20182;-67
2022/09/13 08:17:06;;;;;;;6.40;4.87;;;;;;;;;;5013487;28;20266;-68
2022/09/13 08:19:32;;;;;;;8.43;6.30;;;;;;;;;;4995577;28;20320;-67
2022/09/13 08:21:58;;;;;;;7.27;6.00;;;;;;;;;;5013374;28;20586;-68
2022/09/13 08:24:25;;;;;;;8.87;6.10;;;;;;;;;;5013331;28;20186;-68
2022/09/13 08:26:53;;;;;;;7.20;6.50;;;;;;;;;;5013396;28;20172;-67
2022/09/13 08:29:19;;;;;;;7.40;6.43;;;;;;;;;;5013883;28;20191;-68
2022/09/13 08:31:46;;;;;;;6.90;6.20;;;;;;;;;;5013314;28;20211;-67
2022/09/13 08:34:13;;;;;;;8.27;6.67;;;;;;;;;;4995729;28;20179;-68
2022/09/13 08:36:40;;;;;;;8.67;6.57;;;;;;;;;;5013550;28;20647;-68
2022/09/13 08:39:06;;;;;;;10.50;6.73;;;;;;;;;;4995709;28;20230;-68
2022/09/13 08:41:43;;;;;;;8.23;6.53;;;;;;;;;;5013456;28;20200;-67
2022/09/13 08:44:29;;;;;;;7.93;7.10;;;;;;;;;;5013722;28;20635;-68
2022/09/13 08:47:03;;;;;;;10.30;7.47;;;;;;;;;;5013787;28;20214;-68
2022/09/13 08:49:39;;;;;;;8.23;7.23;;;;;;;;;;4995647;28;20194;-68
2022/09/13 08:52:16;;;;;;;14.33;7.83;;;;;;;;;;5013061;28;20199;-68
2022/09/13 08:54:42;;;;;;;9.60;8.47;;;;;;;;;;4995629;28;20175;-68
2022/09/13 08:57:16;;;;;;;14.27;9.37;;;;;;;;;;4995584;28;20275;-68
2022/09/13 08:59:50;;;;;;;10.27;8.23;;;;;;;;;;5013354;28;20231;-68
2022/09/13 09:02:35;;;;;;;9.80;8.00;;;;;;;;;;5013117;28;20203;-67
2022/09/13 09:05:21;;;;;;;12.13;8.73;;;;;;;;;;5013337;28;20179;-68
2022/09/13 09:07:50;;;;;;;12.73;9.87;;;;;;;;;;5013077;28;20178;-68
2022/09/13 09:10:21;;;;;;;10.60;9.50;;;;;;;;;;5013331;28;20552;-68
2022/09/13 09:12:52;;;;;;;14.90;9.90;;;;;;;;;;5013260;28;20211;-68
2022/09/13 09:15:40;;;;;;;13.13;9.90;;;;;;;;;;5012979;28;20172;-69
2022/09/13 09:18:13;;;;;;;10.27;8.80;;;;;;;;;;4995726;28;20203;-67
2022/09/13 09:20:46;;;;;;;13.17;8.83;;;;;;;;;;5012853;28;20707;-68
2022/09/13 09:23:23;;;;;;;16.63;8.70;;;;;;;;;;4995812;28;20180;-69
2022/09/13 09:25:55;;;;;;;16.27;8.43;;;;;;;;;;5013326;28;20168;-67
2022/09/13 09:28:21;;;;;;;10.83;8.27;;;;;;;;;;4995328;28;20183;-69
2022/09/13 09:30:50;;;;;;;9.47;8.13;;;;;;;;;;5013652;28;20204;-68
2022/09/13 09:33:35;;;;;;;10.23;8.53;;;;;;;;;;4998479;28;20270;-68
2022/09/13 09:36:01;;;;;;;12.20;8.13;;;;;;;;;;5016853;28;20184;-68
2022/09/13 09:38:27;;;;;;;9.73;8.23;;;;;;;;;;5018537;28;20679;-68
2022/09/13 09:40:53;;;;;;;9.90;8.40;;;;;;;;;;4999267;28;20314;-69
2022/09/13 09:43:23;;;;;;;9.30;7.60;;;;;;;;;;5016607;28;20637;-68
2022/09/13 09:45:50;;;;;;;12.03;8.80;;;;;;;;;;5016784;28;20187;-68
2022/09/13 09:48:19;;;;;;;10.57;8.87;;;;;;;;;;5016469;28;20266;-68
2022/09/13 09:50:50;;;;;;;11.47;8.80;;;;;;;;;;5016229;28;20282;-68
2022/09/13 09:53:25;;;;;;;10.47;8.53;;;;;;;;;;5016111;28;20616;-68
2022/09/13 09:56:02;;;;;;;11.80;9.00;;;;;;;;;;5016245;28;20179;-69
2022/09/13 09:58:36;;;;;;;11.67;8.80;;;;;;;;;;5016399;28;20156;-68
2022/09/13 10:01:02;;;;;;;9.90;7.70;;;;;;;;;;5016383;28;20200;-68
2022/09/13 10:03:29;;;;;;;9.57;6.40;;;;;;;;;;5016101;28;20230;-68
2022/09/13 10:06:06;;;;;;;6.97;6.27;;;;;;;;;;5015875;28;20180;-68
2022/09/13 10:08:36;;;;;;;8.53;7.20;;;;;;;;;;5015827;28;20522;-69
2022/09/13 10:11:03;;;;;;;11.80;8.07;;;;;;;;;;5015555;28;20266;-67
2022/09/13 10:13:29;;;;;;;10.83;7.20;;;;;;;;;;4998188;28;20191;-68
2022/09/13 10:15:57;;;;;;;8.83;7.10;;;;;;;;;;5015638;28;20220;-68
2022/09/13 10:18:24;;;;;;;8.93;7.47;;;;;;;;;;5015645;28;20179;-68
2022/09/13 10:21:00;;;;;;;15.03;7.50;;;;;;;;;;4997722;28;20230;-68
2022/09/13 10:23:26;;;;;;;10.00;7.60;;;;;;;;;;4997923;28;20298;-68
2022/09/13 10:25:57;;;;;;;11.20;8.47;;;;;;;;;;4997834;28;20183;-68
2022/09/13 10:28:24;;;;;;;11.37;8.07;;;;;;;;;;5017392;28;20176;-66
2022/09/13 10:30:53;;;;;;;6.90;6.13;;;;;;;;;;5015376;28;20215;-68
2022/09/13 10:33:24;;;;;;;8.13;7.10;;;;;;;;;;4997547;28;20179;-67
2022/09/13 10:35:52;;;;;;;11.87;8.47;;;;;;;;;;5015430;28;20168;-68
2022/09/13 10:38:28;;;;;;;9.07;6.77;;;;;;;;;;5015174;28;20176;-68
2022/09/13 10:40:54;;;;;;;8.43;6.37;;;;;;;;;;4997423;28;20265;-68
2022/09/13 10:43:21;;;;;;;13.80;9.23;;;;;;;;;;5014911;28;20184;-68
2022/09/13 10:45:50;;;;;;;11.53;10.33;;;;;;;;;;5015044;28;20228;-67
2022/09/13 10:48:17;;;;;;;13.13;10.77;;;;;;;;;;5014910;28;20199;-67
2022/09/13 10:51:02;;;;;;;14.63;11.37;;;;;;;;;;5014815;28;20204;-67
2022/09/13 10:53:32;;;;;;;11.33;10.23;;;;;;;;;;5014725;28;20203;-68
2022/09/13 10:55:58;;;;;;;11.57;10.40;;;;;;;;;;5014629;28;20663;-67
2022/09/13 10:58:24;;;;;;;11.23;9.10;;;;;;;;;;4997135;28;20207;-68
2022/09/13 11:01:04;;;;;;;11.10;9.77;;;;;;;;;;5014522;28;20253;-68
2022/09/13 11:03:51;;;;;;;11.10;9.00;;;;;;;;;;5014858;28;20168;-68
2022/09/13 11:06:20;;;;;;;10.07;8.07;;;;;;;;;;5014619;28;20172;-68
2022/09/13 11:08:55;;;;;;;11.17;8.93;;;;;;;;;;4996928;28;20215;-67
2022/09/13 11:11:27;;;;;;;12.00;9.07;;;;;;;;;;5014367;28;20246;-68
2022/09/13 11:14:12;;;;;;;12.50;9.93;;;;;;;;;;5014362;28;20565;-68
2022/09/13 11:16:43;;;;;;;12.20;9.53;;;;;;;;;;5014421;28;20175;-68
2022/09/13 11:19:15;;;;;;;14.10;8.70;;;;;;;;;;5014319;28;20196;-68
2022/09/13 11:21:44;;;;;;;12.27;8.83;;;;;;;;;;5014381;28;20207;-69
2022/09/13 11:24:19;;;;;;;14.67;11.00;;;;;;;;;;4996646;28;20207;-67
2022/09/13 11:26:54;;;;;;;11.93;10.33;;;;;;;;;;5014106;28;20171;-68
2022/09/13 11:29:32;;;;;;;10.20;9.20;;;;;;;;;;4996721;28;20652;-68
2022/09/13 11:32:17;;;;;;;9.87;8.93;;;;;;;;;;5014060;28;20210;-67
2022/09/13 11:34:50;;;;;;;10.33;7.37;;;;;;;;;;5014286;28;20230;-68
2022/09/13 11:37:34;;;;;;;11.87;9.80;;;;;;;;;;5014583;28;20194;-67
2022/09/13 11:40:05;;;;;;;10.00;8.37;;;;;;;;;;5014118;28;20192;-68
2022/09/13 11:42:40;;;;;;;10.40;8.37;;;;;;;;;;4996485;28;20206;-68
2022/09/13 11:45:06;;;;;;;13.33;8.00;;;;;;;;;;5014307;28;20164;-68
2022/09/13 11:47:32;;;;;;;11.33;9.13;;;;;;;;;;5014270;28;20179;-69
2022/09/13 11:50:16;;;;;;;11.47;8.77;;;;;;;;;;5013968;28;20179;-68
2022/09/13 11:52:55;;;;;;;12.00;8.43;;;;;;;;;;5013985;28;20179;-68
2022/09/13 11:55:24;;;;;;;10.50;8.57;;;;;;;;;;5013814;28;20554;-70
2022/09/13 11:57:56;;;;;;;11.03;8.60;;;;;;;;;;4996182;28;20187;-68
2022/09/13 12:00:23;;;;;;;11.97;8.80;;;;;;;;;;5013830;28;20211;-68
2022/09/13 12:03:03;;;;;;;9.83;7.90;;;;;;;;;;5013719;28;20187;-68
2022/09/13 12:05:34;;;;;;;11.97;8.30;;;;;;;;;;5013660;28;20230;-69
2022/09/13 12:08:02;;;;;;;11.77;9.07;;;;;;;;;;4996050;28;20168;-69
2022/09/13 12:10:28;;;;;;;12.77;10.40;;;;;;;;;;5012288;28;20387;-69
2022/09/13 12:12:55;;;;;;;10.13;8.93;;;;;;;;;;5012376;28;20385;-69
2022/09/13 12:15:21;;;;;;;9.67;7.80;;;;;;;;;;5013513;28;20172;-69
2022/09/13 12:18:00;;;;;;;9.43;7.77;;;;;;;;;;5013585;28;20241;-69
2022/09/13 12:20:32;;;;;;;9.40;8.07;;;;;;;;;;5013359;28;20541;-68
2022/09/13 12:23:00;;;;;;;9.70;7.23;;;;;;;;;;5013902;28;20164;-68
2022/09/13 12:25:32;;;;;;;11.33;5.63;;;;;;;;;;5013455;28;20172;-69
2022/09/13 12:28:13;;;;;;;8.80;6.90;;;;;;;;;;5013651;28;20160;-69
2022/09/13 12:30:42;;;;;;;6.90;6.17;;;;;;;;;;4995898;28;20710;-68
2022/09/13 12:33:08;;;;;;;8.03;7.00;;;;;;;;;;4995706;28;20180;-68
2022/09/13 12:35:37;;;;;;;9.47;7.47;;;;;;;;;;5013808;28;20191;-68
2022/09/13 12:38:12;;;;;;;9.37;7.83;;;;;;;;;;5013491;28;20190;-68
2022/09/13 12:40:57;;;;;;;9.40;7.07;;;;;;;;;;5013281;28;20211;-69
2022/09/13 12:43:29;;;;;;;10.87;8.67;;;;;;;;;;5013372;28;20182;-68
2022/09/13 12:46:05;;;;;;;10.87;8.20;;;;;;;;;;5013472;28;20168;-69
2022/09/13 12:48:40;;;;;;;10.33;9.03;;;;;;;;;;5013339;28;20245;-69
2022/09/13 12:51:08;;;;;;;11.27;8.07;;;;;;;;;;5013335;28;20237;-69
2022/09/13 12:53:37;;;;;;;10.73;8.23;;;;;;;;;;4995470;28;20189;-69
2022/09/13 12:56:22;;;;;;;11.63;7.90;;;;;;;;;;4995476;28;20191;-69
2022/09/13 12:59:11;;;;;;;11.43;8.57;;;;;;;;;;5013222;28;20546;-68
2022/09/13 13:01:37;;;;;;;9.43;7.80;;;;;;;;;;4987611;28;20211;-69
2022/09/13 13:04:24;;;;;;;12.13;9.70;;;;;;;;;;5012936;28;20225;-69
2022/09/13 13:06:50;;;;;;;12.77;9.90;;;;;;;;;;5014109;28;20226;-69
2022/09/13 13:09:22;;;;;;;11.87;7.90;;;;;;;;;;5017173;28;20258;-69
2022/09/13 13:11:49;;;;;;;10.27;9.20;;;;;;;;;;5017070;28;20574;-68
2022/09/13 13:14:34;;;;;;;12.00;8.97;;;;;;;;;;5017267;28;20655;-69
2022/09/13 13:17:18;;;;;;;14.17;9.20;;;;;;;;;;4999011;28;20192;-69
2022/09/13 13:19:44;;;;;;;9.83;8.30;;;;;;;;;;5016617;28;20293;-69
2022/09/13 13:22:29;;;;;;;16.73;10.77;;;;;;;;;;4998827;28;20683;-70
2022/09/13 13:24:55;;;;;;;15.23;11.10;;;;;;;;;;4998850;28;20176;-69
2022/09/13 13:27:36;;;;;;;11.87;10.00;;;;;;;;;;4998948;28;20329;-69
2022/09/13 13:30:20;;;;;;;13.93;10.37;;;;;;;;;;4998996;28;20282;-69
2022/09/13 13:33:05;;;;;;;12.50;10.60;;;;;;;;;;5016923;28;20603;-69
2022/09/13 13:35:31;;;;;;;12.67;11.37;;;;;;;;;;4999012;28;20179;-68
2022/09/13 13:38:13;;;;;;;14.63;9.77;;;;;;;;;;5016450;28;20560;-69
2022/09/13 13:40:39;;;;;;;14.70;11.87;;;;;;;;;;5016522;28;20215;-69
2022/09/13 13:43:41;;;;;;;12.50;9.13;;;;;;;;;;5016688;28;20640;-69
2022/09/13 13:46:10;;;;;;;13.43;9.33;;;;;;;;;;4939904;29;20217;-69
2022/09/13 13:48:37;;;;;;;10.37;7.83;;;;;;;;;;5005470;28;20639;-68
2022/09/13 13:51:12;;;;;;;13.40;8.77;;;;;;;;;;5016464;28;20210;-69
2022/09/13 13:53:41;;;;;;;13.80;10.40;;;;;;;;;;4998695;28;20228;-69
2022/09/13 13:56:23;;;;;;;15.57;9.53;;;;;;;;;;4998555;28;20621;-69
2022/09/13 13:59:03;;;;;;;11.17;9.43;;;;;;;;;;5016748;28;20207;-69
2022/09/13 14:01:31;;;;;;;11.90;9.90;;;;;;;;;;5016019;28;20258;-69
2022/09/13 14:04:04;;;;;;;10.23;8.80;;;;;;;;;;4998148;28;20644;-69
2022/09/13 14:06:51;;;;;;;11.70;8.23;;;;;;;;;;5015741;28;20251;-69
2022/09/13 14:09:37;;;;;;;12.77;9.00;;;;;;;;;;4998131;28;20192;-69
2022/09/13 14:12:12;;;;;;;11.37;9.00;;;;;;;;;;5005135;28;20219;-69
2022/09/13 14:14:41;;;;;;;11.33;8.53;;;;;;;;;;5016165;28;20538;-69
2022/09/13 14:17:28;;;;;;;10.97;8.80;;;;;;;;;;5015431;28;20207;-69
2022/09/13 14:19:55;;;;;;;9.53;8.63;;;;;;;;;;5015850;28;20203;-70
2022/09/13 14:22:23;;;;;;;13.13;9.80;;;;;;;;;;5015403;28;20211;-67
2022/09/13 14:24:49;;;;;;;13.33;9.13;;;;;;;;;;4997919;28;20554;-67
2022/09/13 14:27:17;;;;;;;9.77;8.23;;;;;;;;;;5015321;28;20259;-68
2022/09/13 14:29:47;;;;;;;10.33;7.83;;;;;;;;;;5015423;28;20551;-69
2022/09/13 14:32:15;;;;;;;10.07;7.60;;;;;;;;;;5015371;28;20574;-69
2022/09/13 14:34:49;;;;;;;9.77;7.80;;;;;;;;;;4997639;28;20195;-69
2022/09/13 14:37:17;;;;;;;10.57;6.73;;;;;;;;;;4998396;28;20175;-69
2022/09/13 14:40:22;;;;;;;10.10;7.37;;;;;;;;;;5015223;28;20218;-69
2022/09/13 14:42:50;;;;;;;9.17;7.90;;;;;;;;;;4955305;29;20189;-69
2022/09/13 14:45:19;;;;;;;8.27;6.13;;;;;;;;;;4954726;29;20233;-69
2022/09/13 14:47:55;;;;;;;12.07;8.47;;;;;;;;;;4985003;28;20192;-69
2022/09/13 14:50:26;;;;;;;12.27;9.07;;;;;;;;;;5014917;28;20250;-69
2022/09/13 14:53:06;;;;;;;10.07;9.03;;;;;;;;;;5015183;28;20183;-69
2022/09/13 14:55:55;;;;;;;15.20;9.80;;;;;;;;;;4997267;28;20179;-69
2022/09/13 14:58:25;;;;;;;10.27;9.30;;;;;;;;;;5006976;28;20199;-69